VNKT METAR

Available data for VNKT from the past hour
KATHMANDU INTL A
Metar
VNKT 191520Z 17003KT 130V200 3500 BR FEW015 10/08 Q1021 NOSIG

15:20 UTC

Wind: 170° 3kt

Visibility: 3500 m

Sky: FEW 1500 ft

Temp: 10 deg C / 50 deg F

Dewpoint: 8 deg C / 46.4 deg F

Pressure: 1021 hPa

TAF
TAF VNKT 191100Z 1912/2012 24004KT 5000 HZ FEW015 BECMG 1914/1915 4000 BR FEW015 BECMG 2000/2002 3000 BR FEW010 PROB40 2001/2003 1000 BR BECMG 2004/2005 4000 BR FEW015 BECMG 2007/2008 7000 FEW020

WARNING: the data listed  above is for informational purposes only and should be confirmed from official sources. Data presented here on this page are fetched from Aviation weather data from NOAA’s Aviation Digital Data Service.

How to see the Details of METAR Reading.

Click on the Triangle beside of the Word METAR.(Refer to Fig.1)

VNKTmetar